MSC Vanessa — HOWD — position and weather

sailwx.info

Track history (hours):
 
Tides and Currents Weather Stations Pressure Air Temp Water Temp Dewpoint Dewpoint Depression Visibility Wind Speed Wind Dir Waves Ship Positions

MSC Vanessa

Last reported at 2015-Jan-31 21:33 UTC. Time now 2015-Feb-01 13:16 UTC.
Position N 39°45' W 073°52'.

Length 300 m; draft 12.6 m.

Type: Ship (hazmat cat A). MMSI: 356946000.

Date/timePositionNaut miles runAvg speedWind from/ knotsBaromVisibWave heightAir tempDewpointWater temp
2015-Jan-31 21:33N 39°45' W 073°52'3913.0
2015-Jan-31 18:33N 40°24' W 073°49'9 8.8
2015-Jan-31 17:33N 40°30' W 073°57'1111.5
2015-Jan-31 16:33N 40°39' W 074°07'3 2.9
2015-Jan-31 15:33N 40°41' W 074°09'0 0.1
2015-Jan-31 14:29N 40°41' W 074°09'0 0.0
2015-Jan-31 13:29N 40°41' W 074°09'0 0.0
2015-Jan-31 12:29N 40°41' W 074°09'0 0.0
2015-Jan-31 11:29N 40°41' W 074°09'0 0.0
2015-Jan-31 10:29N 40°41' W 074°09'0 0.0
2015-Jan-31 09:29N 40°41' W 074°09'0 0.0
2015-Jan-31 08:29N 40°41' W 074°09'0 0.0
2015-Jan-31 07:29N 40°41' W 074°09'0 0.0
2015-Jan-31 06:29N 40°41' W 074°09'0 0.0
2015-Jan-30 23:11N 40°41' W 074°09'0 0.0
2015-Jan-30 22:23N 40°41' W 074°09'0 0.0
2015-Jan-30 21:29N 40°41' W 074°09'0 0.0
2015-Jan-30 19:11N 40°41' W 074°09'0 0.0
2015-Jan-30 18:23N 40°41' W 074°09'0 0.0
2015-Jan-30 16:11N 40°41' W 074°09'0 0.0
2015-Jan-30 14:11N 40°41' W 074°09'0 0.0
2015-Jan-30 11:23N 40°41' W 074°09'0 0.0
2015-Jan-30 09:05N 40°41' W 074°09'0 0.0
2015-Jan-30 08:29N 40°41' W 074°09'0 0.0
2015-Jan-30 07:29N 40°41' W 074°09'0 0.0
2015-Jan-30 05:23N 40°41' W 074°09'0 0.0
2015-Jan-30 04:29N 40°41' W 074°09'0 0.0
2015-Jan-30 03:29N 40°41' W 074°09'2 2.7
2015-Jan-30 02:34N 40°39' W 074°09'5 4.6
2015-Jan-30 01:34N 40°37' W 074°03'1110.9
2015-Jan-30 00:33N 40°29' W 073°54'8 7.3
2015-Jan-29 23:30N 40°27' W 073°44'7 7.0
2015-Jan-29 22:33N 40°28' W 073°35'8 7.7
2015-Jan-29 21:34N 40°29' W 073°25'1515.1
2015-Jan-29 20:33N 40°30' W 073°05'1815.2
2015-Jan-29 19:23N 40°30' W 072°42'1315.3
2015-Jan-29 18:33N 40°31' W 072°25'1515.3
2015-Jan-29 17:33N 40°31' W 072°05'1515.4
2015-Jan-29 16:33N 40°31' W 071°45'1515.5
2015-Jan-29 15:34N 40°32' W 071°24'1615.6
2015-Jan-29 14:33N 40°32' W 071°04'1815.4
2015-Jan-29 13:22N 40°33' W 070°40'1315.5
2015-Jan-29 12:30N 40°33' W 070°22'1516.0
2015-Jan-29 11:33N 40°33' W 070°02'1515.5
2015-Jan-29 10:34N 40°34' W 069°42'1815.8
2015-Jan-29 09:27N 40°34' W 069°19'1614.8
2015-Jan-29 08:21N 40°44' W 069°02'6615.7
2015-Jan-29 04:10N 41°44' W 069°39'5614.9
2015-Jan-29 00:23N 42°19' W 070°38'1213.9
2015-Jan-28 23:33N 42°23' W 070°53'  
2015-Jan-26 11:29N 42°21' W 071°01'4 0.8
2015-Jan-26 07:09N 42°21' W 070°56'710.1
2015-Jan-26 06:30N 42°25' W 070°49'2 2.1
2015-Jan-26 05:33N 42°25' W 070°47'0 0.0
2015-Jan-26 04:30N 42°25' W 070°47'0 0.1
2015-Jan-26 03:33N 42°25' W 070°47'0 0.0
2015-Jan-26 02:33N 42°25' W 070°47'0 0.0
2015-Jan-26 01:21N 42°25' W 070°47'0 0.0
2015-Jan-26 00:30N 42°25' W 070°47'0 0.1
2015-Jan-25 23:33N 42°25' W 070°47'0 0.0
2015-Jan-25 22:33N 42°25' W 070°47'0 0.0
2015-Jan-25 21:30N 42°25' W 070°47'0 0.0
2015-Jan-25 20:33N 42°25' W 070°47'0 0.0
2015-Jan-25 19:24N 42°25' W 070°47'0 0.1
2015-Jan-25 18:33N 42°25' W 070°47'0 0.1
2015-Jan-25 17:24N 42°25' W 070°47'0 0.1
2015-Jan-25 16:18N 42°25' W 070°47'0 0.1
2015-Jan-25 15:30N 42°25' W 070°47'0 0.0
2015-Jan-25 14:24N 42°25' W 070°47'0 0.0
2015-Jan-25 13:24N 42°25' W 070°47'0 0.0
2015-Jan-25 12:24N 42°25' W 070°47'0 0.1
2015-Jan-25 11:12N 42°25' W 070°47'0 0.0
2015-Jan-25 10:12N 42°25' W 070°47'0 0.0
2015-Jan-25 09:06N 42°25' W 070°47'0 0.1
2015-Jan-25 08:06N 42°25' W 070°47'0 0.0
2015-Jan-25 07:24N 42°25' W 070°47'0 0.0
2015-Jan-25 06:30N 42°25' W 070°47'0 0.1
2015-Jan-25 05:18N 42°25' W 070°47'0 0.1
2015-Jan-25 04:30N 42°25' W 070°47'0 0.1
2015-Jan-25 03:33N 42°25' W 070°47'0 0.0
2015-Jan-25 02:33N 42°25' W 070°47'0 0.0
2015-Jan-25 01:30N 42°25' W 070°47'0 0.0
2015-Jan-25 00:33N 42°25' W 070°47'0 0.0
2015-Jan-24 23:33N 42°25' W 070°47'0 0.1
2015-Jan-24 22:33N 42°25' W 070°47'  
Track history (hours):
 
Tides and Currents Weather Stations Pressure Air Temp Water Temp Dewpoint Dewpoint Depression Visibility Wind Speed Wind Dir Waves Ship Positions

MSC Vanessa

Last reported at 2015-Jan-31 21:33 UTC. Time now 2015-Feb-01 13:16 UTC.
Position N 39°45' W 073°52'.

Length 300 m; draft 12.6 m.

Type: Ship (hazmat cat A). MMSI: 356946000.

Date/timePositionNaut miles runAvg speedWind from/ knotsBaromVisibWave heightAir tempDewpointWater temp
2015-Jan-31 21:33N 39°45' W 073°52'3913.0
2015-Jan-31 18:33N 40°24' W 073°49'9 8.8
2015-Jan-31 17:33N 40°30' W 073°57'1111.5
2015-Jan-31 16:33N 40°39' W 074°07'3 2.9
2015-Jan-31 15:33N 40°41' W 074°09'0 0.1
2015-Jan-31 14:29N 40°41' W 074°09'0 0.0
2015-Jan-31 13:29N 40°41' W 074°09'0 0.0
2015-Jan-31 12:29N 40°41' W 074°09'0 0.0
2015-Jan-31 11:29N 40°41' W 074°09'0 0.0
2015-Jan-31 10:29N 40°41' W 074°09'0 0.0
2015-Jan-31 09:29N 40°41' W 074°09'0 0.0
2015-Jan-31 08:29N 40°41' W 074°09'0 0.0
2015-Jan-31 07:29N 40°41' W 074°09'0 0.0
2015-Jan-31 06:29N 40°41' W 074°09'0 0.0
2015-Jan-30 23:11N 40°41' W 074°09'0 0.0
2015-Jan-30 22:23N 40°41' W 074°09'0 0.0
2015-Jan-30 21:29N 40°41' W 074°09'0 0.0
2015-Jan-30 19:11N 40°41' W 074°09'0 0.0
2015-Jan-30 18:23N 40°41' W 074°09'0 0.0
2015-Jan-30 16:11N 40°41' W 074°09'0 0.0
2015-Jan-30 14:11N 40°41' W 074°09'0 0.0
2015-Jan-30 11:23N 40°41' W 074°09'0 0.0
2015-Jan-30 09:05N 40°41' W 074°09'0 0.0
2015-Jan-30 08:29N 40°41' W 074°09'0 0.0
2015-Jan-30 07:29N 40°41' W 074°09'0 0.0
2015-Jan-30 05:23N 40°41' W 074°09'0 0.0
2015-Jan-30 04:29N 40°41' W 074°09'0 0.0
2015-Jan-30 03:29N 40°41' W 074°09'2 2.7
2015-Jan-30 02:34N 40°39' W 074°09'5 4.6
2015-Jan-30 01:34N 40°37' W 074°03'1110.9
2015-Jan-30 00:33N 40°29' W 073°54'8 7.3
2015-Jan-29 23:30N 40°27' W 073°44'7 7.0
2015-Jan-29 22:33N 40°28' W 073°35'8 7.7
2015-Jan-29 21:34N 40°29' W 073°25'1515.1
2015-Jan-29 20:33N 40°30' W 073°05'1815.2
2015-Jan-29 19:23N 40°30' W 072°42'1315.3
2015-Jan-29 18:33N 40°31' W 072°25'1515.3
2015-Jan-29 17:33N 40°31' W 072°05'1515.4
2015-Jan-29 16:33N 40°31' W 071°45'1515.5
2015-Jan-29 15:34N 40°32' W 071°24'1615.6
2015-Jan-29 14:33N 40°32' W 071°04'1815.4
2015-Jan-29 13:22N 40°33' W 070°40'1315.5
2015-Jan-29 12:30N 40°33' W 070°22'1516.0
2015-Jan-29 11:33N 40°33' W 070°02'1515.5
2015-Jan-29 10:34N 40°34' W 069°42'1815.8
2015-Jan-29 09:27N 40°34' W 069°19'1614.8
2015-Jan-29 08:21N 40°44' W 069°02'6615.7
2015-Jan-29 04:10N 41°44' W 069°39'5614.9
2015-Jan-29 00:23N 42°19' W 070°38'1213.9
2015-Jan-28 23:33N 42°23' W 070°53'  
2015-Jan-26 11:29N 42°21' W 071°01'4 0.8
2015-Jan-26 07:09N 42°21' W 070°56'710.1
2015-Jan-26 06:30N 42°25' W 070°49'2 2.1
2015-Jan-26 05:33N 42°25' W 070°47'0 0.0
2015-Jan-26 04:30N 42°25' W 070°47'0 0.1
2015-Jan-26 03:33N 42°25' W 070°47'0 0.0
2015-Jan-26 02:33N 42°25' W 070°47'0 0.0
2015-Jan-26 01:21N 42°25' W 070°47'0 0.0
2015-Jan-26 00:30N 42°25' W 070°47'0 0.1
2015-Jan-25 23:33N 42°25' W 070°47'0 0.0
2015-Jan-25 22:33N 42°25' W 070°47'0 0.0
2015-Jan-25 21:30N 42°25' W 070°47'0 0.0
2015-Jan-25 20:33N 42°25' W 070°47'0 0.0
2015-Jan-25 19:24N 42°25' W 070°47'0 0.1
2015-Jan-25 18:33N 42°25' W 070°47'0 0.1
2015-Jan-25 17:24N 42°25' W 070°47'0 0.1
2015-Jan-25 16:18N 42°25' W 070°47'0 0.1
2015-Jan-25 15:30N 42°25' W 070°47'0 0.0
2015-Jan-25 14:24N 42°25' W 070°47'0 0.0
2015-Jan-25 13:24N 42°25' W 070°47'0 0.0
2015-Jan-25 12:24N 42°25' W 070°47'0 0.1
2015-Jan-25 11:12N 42°25' W 070°47'0 0.0
2015-Jan-25 10:12N 42°25' W 070°47'0 0.0
2015-Jan-25 09:06N 42°25' W 070°47'0 0.1
2015-Jan-25 08:06N 42°25' W 070°47'0 0.0
2015-Jan-25 07:24N 42°25' W 070°47'0 0.0
2015-Jan-25 06:30N 42°25' W 070°47'0 0.1
2015-Jan-25 05:18N 42°25' W 070°47'0 0.1
2015-Jan-25 04:30N 42°25' W 070°47'0 0.1
2015-Jan-25 03:33N 42°25' W 070°47'0 0.0
2015-Jan-25 02:33N 42°25' W 070°47'0 0.0
2015-Jan-25 01:30N 42°25' W 070°47'0 0.0
2015-Jan-25 00:33N 42°25' W 070°47'0 0.0
2015-Jan-24 23:33N 42°25' W 070°47'0 0.1
2015-Jan-24 22:33N 42°25' W 070°47'  

Dump ship's entire track history